createdAt,value
2022-12-08T00:01:49.051Z,5.67
2022-12-08T00:04:17.819Z,3.63
2022-12-08T00:07:05.836Z,4.97
2022-12-08T00:09:39.451Z,1.40
2022-12-08T00:12:09.781Z,1.90
2022-12-08T00:14:41.600Z,3.63
2022-12-08T00:17:12.044Z,6.17
2022-12-08T00:19:41.258Z,5.77
2022-12-08T00:22:10.573Z,6.37
2022-12-08T00:24:40.650Z,6.70
2022-12-08T00:27:09.697Z,2.27
2022-12-08T00:29:39.985Z,3.33
2022-12-08T00:32:08.155Z,3.03
2022-12-08T00:34:36.417Z,19.47
2022-12-08T00:37:04.884Z,1.90
2022-12-08T00:39:33.109Z,3.17
2022-12-08T00:42:13.413Z,14.53
2022-12-08T00:44:44.486Z,3.57
2022-12-08T00:47:13.419Z,4.80
2022-12-08T00:49:42.337Z,5.40
2022-12-08T00:52:10.676Z,2.67
2022-12-08T00:54:38.889Z,4.63
2022-12-08T00:57:08.628Z,3.53
2022-12-08T00:59:36.736Z,1.50
2022-12-08T01:02:06.297Z,5.43
2022-12-08T01:04:36.549Z,5.93
2022-12-08T01:07:04.691Z,3.83
2022-12-08T01:09:33.203Z,5.33
2022-12-08T01:12:01.445Z,6.13
2022-12-08T01:14:29.554Z,3.17
2022-12-08T01:16:58.126Z,3.47
2022-12-08T01:19:28.001Z,3.90
2022-12-08T01:21:56.113Z,3.37
2022-12-08T01:24:24.364Z,4.33
2022-12-08T01:26:52.929Z,2.57
2022-12-08T01:29:21.234Z,2.47
2022-12-08T01:31:49.449Z,7.97
2022-12-08T01:34:18.043Z,2.80
2022-12-08T01:36:48.068Z,6.50
2022-12-08T01:39:18.488Z,4.47
2022-12-08T01:41:48.503Z,7.83
2022-12-08T01:44:53.519Z,7.17
2022-12-08T01:47:23.051Z,11.30
2022-12-08T01:49:51.133Z,2.37
2022-12-08T01:52:26.557Z,12.40
2022-12-08T01:54:59.327Z,4.87
2022-12-08T01:57:30.654Z,7.13
2022-12-08T02:00:07.885Z,5.47
2022-12-08T02:02:41.651Z,6.83
2022-12-08T02:05:11.253Z,5.43
2022-12-08T02:07:41.176Z,7.20
2022-12-08T02:10:11.768Z,5.30
2022-12-08T02:12:40.153Z,5.53
2022-12-08T02:15:09.200Z,2.93
2022-12-08T02:17:51.718Z,7.60
2022-12-08T02:20:46.836Z,2.43
2022-12-08T02:23:25.890Z,2.60
2022-12-08T02:26:18.817Z,10.47
2022-12-08T02:29:16.941Z,2.63
2022-12-08T02:31:59.129Z,3.03
2022-12-08T02:34:35.048Z,7.23
2022-12-08T02:37:09.833Z,4.70
2022-12-08T02:39:47.698Z,6.07
2022-12-08T02:42:25.164Z,7.87
2022-12-08T02:44:56.681Z,4.83
2022-12-08T02:47:27.518Z,5.27
2022-12-08T02:49:58.580Z,1.83
2022-12-08T02:52:43.140Z,2.43
2022-12-08T02:55:25.943Z,4.43
2022-12-08T02:58:06.766Z,2.00
2022-12-08T03:00:45.389Z,4.37
2022-12-08T03:03:20.584Z,3.57
2022-12-08T03:06:01.300Z,3.77
2022-12-08T03:08:36.877Z,5.83
2022-12-08T03:11:10.780Z,2.07
2022-12-08T03:13:42.967Z,4.30
2022-12-08T03:16:14.386Z,3.73
2022-12-08T03:18:48.590Z,1.50
2022-12-08T03:21:21.507Z,5.90
2022-12-08T03:23:54.695Z,5.00
2022-12-08T03:26:30.814Z,9.20
2022-12-08T03:28:59.375Z,5.27
2022-12-08T03:31:29.899Z,1.90
2022-12-08T03:34:00.085Z,9.77
2022-12-08T03:36:30.076Z,3.00
2022-12-08T03:38:58.176Z,4.77
2022-12-08T03:41:26.524Z,3.47
2022-12-08T03:43:57.207Z,2.70
2022-12-08T03:48:54.484Z,11.07
2022-12-08T03:51:23.307Z,5.43
2022-12-08T03:53:52.807Z,9.20
2022-12-08T03:56:25.305Z,4.73
2022-12-08T03:58:53.944Z,2.93
2022-12-08T04:01:22.340Z,4.07
2022-12-08T04:03:51.134Z,5.30
2022-12-08T04:06:19.586Z,12.43
2022-12-08T04:08:48.168Z,3.53
2022-12-08T04:11:18.258Z,4.00
2022-12-08T04:13:46.878Z,6.07
2022-12-08T04:16:18.053Z,13.50
2022-12-08T04:18:46.832Z,10.70
2022-12-08T04:21:15.525Z,3.07
2022-12-08T04:23:44.483Z,7.53
2022-12-08T04:26:13.066Z,3.50
2022-12-08T04:28:42.561Z,5.60
2022-12-08T04:31:11.590Z,3.60
2022-12-08T04:33:40.259Z,6.50
2022-12-08T04:36:09.403Z,5.43
2022-12-08T04:38:37.546Z,8.77
2022-12-08T04:41:06.058Z,4.57
2022-12-08T04:43:34.211Z,10.40
2022-12-08T04:46:06.933Z,3.47
2022-12-08T04:48:35.440Z,5.33
2022-12-08T04:51:03.645Z,9.63
2022-12-08T04:53:31.786Z,5.83
2022-12-08T04:56:00.187Z,9.63
2022-12-08T04:58:28.405Z,6.33
2022-12-08T05:00:56.887Z,11.57
2022-12-08T05:03:28.697Z,5.07
2022-12-08T05:05:57.559Z,7.67
2022-12-08T05:08:25.782Z,4.37
2022-12-08T05:10:54.349Z,5.17
2022-12-08T05:13:22.941Z,9.07
2022-12-08T05:15:52.640Z,10.93
2022-12-08T05:18:21.264Z,3.63
2022-12-08T05:20:51.106Z,6.63
2022-12-08T05:23:19.190Z,2.70
2022-12-08T05:25:47.688Z,7.77
2022-12-08T05:28:40.111Z,3.67
2022-12-08T05:31:04.443Z,6.80
2022-12-08T05:33:32.601Z,4.43
2022-12-08T05:36:02.071Z,2.20
2022-12-08T05:38:30.884Z,7.47
2022-12-08T05:40:59.114Z,2.73
2022-12-08T05:43:29.242Z,4.93
2022-12-08T05:45:57.454Z,5.60
2022-12-08T05:48:25.968Z,4.43
2022-12-08T05:50:54.312Z,3.33
2022-12-08T05:53:24.367Z,2.87
2022-12-08T05:55:53.376Z,6.90
2022-12-08T05:58:23.634Z,10.97
2022-12-08T06:00:52.766Z,6.13
2022-12-08T06:03:21.482Z,4.53
2022-12-08T06:05:49.840Z,7.60
2022-12-08T06:08:18.471Z,3.20
2022-12-08T06:10:48.592Z,1.57
2022-12-08T06:13:16.807Z,2.63
2022-12-08T06:15:45.310Z,5.30
2022-12-08T06:18:13.526Z,2.30
2022-12-08T06:20:42.530Z,1.57
2022-12-08T06:23:11.116Z,3.97
2022-12-08T06:25:40.079Z,3.00
2022-12-08T06:28:09.510Z,3.97
2022-12-08T06:30:39.628Z,1.90
2022-12-08T06:33:07.908Z,3.00
2022-12-08T06:35:35.981Z,13.80
2022-12-08T06:38:04.184Z,25.20
2022-12-08T06:40:32.846Z,13.80
2022-12-08T06:43:00.931Z,25.43
2022-12-08T06:45:30.534Z,33.27
2022-12-08T06:47:59.612Z,6.93
2022-12-08T06:50:27.863Z,20.97
2022-12-08T06:53:04.914Z,10.97
2022-12-08T06:58:22.944Z,5.67
2022-12-08T07:00:52.573Z,8.87
2022-12-08T07:03:20.733Z,12.57
2022-12-08T07:05:48.982Z,6.73
2022-12-08T07:08:17.320Z,13.03
2022-12-08T07:10:45.444Z,4.37
2022-12-08T07:13:15.308Z,8.53
2022-12-08T07:15:43.782Z,4.27
2022-12-08T07:18:13.345Z,9.87
2022-12-08T07:20:41.637Z,6.30
2022-12-08T07:23:09.890Z,9.40
2022-12-08T07:25:37.984Z,8.13
2022-12-08T07:28:12.848Z,6.43
2022-12-08T07:30:40.990Z,10.70
2022-12-08T07:33:09.125Z,9.77
2022-12-08T07:35:39.120Z,5.97
2022-12-08T07:38:07.192Z,5.37
2022-12-08T07:40:35.621Z,3.97
2022-12-08T07:43:04.318Z,8.57
2022-12-08T07:45:32.386Z,5.77
2022-12-08T07:48:00.653Z,5.97
2022-12-08T07:50:29.030Z,14.03
2022-12-08T07:52:58.520Z,7.00
2022-12-08T07:55:26.995Z,6.00
2022-12-08T07:57:55.850Z,6.77
2022-12-08T08:00:24.199Z,11.00
2022-12-08T08:02:52.475Z,9.10
2022-12-08T08:05:21.385Z,6.53
2022-12-08T08:07:49.669Z,13.03
2022-12-08T08:10:19.577Z,5.77
2022-12-08T08:12:49.081Z,11.13
2022-12-08T08:15:17.861Z,7.27
2022-12-08T08:17:46.624Z,6.27
2022-12-08T08:20:15.917Z,9.53
2022-12-08T08:22:43.999Z,9.70
2022-12-08T08:25:12.101Z,5.80
2022-12-08T08:27:42.087Z,5.13
2022-12-08T08:30:18.181Z,11.43
2022-12-08T08:32:48.769Z,11.83
2022-12-08T08:35:17.456Z,5.73
2022-12-08T08:37:48.890Z,9.40
2022-12-08T08:40:20.285Z,4.60
2022-12-08T08:42:49.729Z,5.90
2022-12-08T08:45:18.116Z,6.37
2022-12-08T08:47:46.353Z,6.60
2022-12-08T08:50:14.628Z,5.57
2022-12-08T08:52:42.865Z,9.30
2022-12-08T08:55:11.440Z,4.50
2022-12-08T08:57:39.506Z,8.20
2022-12-08T09:00:12.380Z,10.13
2022-12-08T09:02:40.518Z,5.83
2022-12-08T09:05:09.779Z,5.60
2022-12-08T09:07:38.169Z,3.57
2022-12-08T09:10:07.744Z,7.47
2022-12-08T09:12:36.622Z,5.83
2022-12-08T09:15:05.683Z,13.43
2022-12-08T09:17:35.174Z,10.77
2022-12-08T09:20:03.740Z,4.57
2022-12-08T09:22:32.208Z,6.27
2022-12-08T09:25:00.374Z,10.70
2022-12-08T09:27:28.445Z,8.90
2022-12-08T09:29:57.049Z,9.90
2022-12-08T09:32:25.337Z,3.03
2022-12-08T09:34:55.298Z,4.47
2022-12-08T09:37:24.047Z,6.07
2022-12-08T09:39:52.536Z,8.73
2022-12-08T09:42:34.316Z,15.67
2022-12-08T09:45:07.216Z,6.57
2022-12-08T09:47:43.104Z,6.37
2022-12-08T09:50:19.468Z,6.30
2022-12-08T09:52:54.030Z,4.00
2022-12-08T09:55:26.241Z,11.30
2022-12-08T09:58:01.888Z,4.33
2022-12-08T10:00:30.131Z,7.70
2022-12-08T10:02:59.975Z,16.33
2022-12-08T10:05:31.639Z,7.27
2022-12-08T10:08:09.791Z,4.90
2022-12-08T10:10:43.816Z,3.00
2022-12-08T10:13:22.971Z,7.87
2022-12-08T10:16:00.513Z,7.83
2022-12-08T10:18:30.816Z,6.93
2022-12-08T10:21:14.969Z,9.23
2022-12-08T10:23:45.710Z,8.27
2022-12-08T10:26:17.488Z,7.17
2022-12-08T10:28:45.899Z,8.17
2022-12-08T10:31:19.641Z,5.80
2022-12-08T10:33:50.440Z,7.03
2022-12-08T10:36:20.729Z,11.57
2022-12-08T10:38:48.803Z,5.27
2022-12-08T10:41:18.661Z,7.97
2022-12-08T10:43:50.967Z,10.33
2022-12-08T10:46:21.777Z,6.37
2022-12-08T10:48:54.571Z,6.00
2022-12-08T10:51:30.753Z,6.30
2022-12-08T10:53:59.555Z,8.17
2022-12-08T10:56:30.180Z,6.63
2022-12-08T10:59:20.229Z,8.20
2022-12-08T11:01:51.712Z,5.87
2022-12-08T11:04:22.063Z,5.27
2022-12-08T11:06:52.912Z,5.93
2022-12-08T11:09:38.157Z,3.80
2022-12-08T11:12:14.311Z,3.23
2022-12-08T11:14:50.971Z,13.80
2022-12-08T11:17:26.438Z,5.07
2022-12-08T11:20:00.932Z,11.30
2022-12-08T11:22:32.674Z,4.00
2022-12-08T11:25:03.654Z,5.73
2022-12-08T11:27:34.969Z,4.73
2022-12-08T11:30:08.436Z,5.80
2022-12-08T11:32:41.514Z,6.77
2022-12-08T11:35:19.173Z,6.60
2022-12-08T11:37:49.306Z,3.80
2022-12-08T11:40:23.227Z,2.97
2022-12-08T11:42:59.142Z,5.10
2022-12-08T11:45:31.433Z,4.70
2022-12-08T11:48:07.864Z,5.50
2022-12-08T11:50:43.772Z,4.33
2022-12-08T11:53:21.987Z,7.20
2022-12-08T11:55:56.408Z,7.30
2022-12-08T11:58:27.869Z,4.27
2022-12-08T12:00:57.790Z,7.40
2022-12-08T12:03:32.284Z,5.23
2022-12-08T12:06:46.492Z,5.40
2022-12-08T12:09:17.662Z,2.17
2022-12-08T12:12:20.092Z,3.77
2022-12-08T12:15:01.609Z,4.57
2022-12-08T12:17:42.703Z,2.73
2022-12-08T12:20:19.372Z,2.00
2022-12-08T12:22:52.664Z,5.07
2022-12-08T12:25:24.956Z,11.87
2022-12-08T12:27:57.707Z,3.93
2022-12-08T12:30:29.219Z,2.27
2022-12-08T12:33:01.768Z,5.03
2022-12-08T12:35:35.079Z,3.20
2022-12-08T12:38:28.583Z,5.13
2022-12-08T12:41:02.891Z,3.83
2022-12-08T12:43:36.882Z,3.23
2022-12-08T12:46:42.635Z,6.53
2022-12-08T12:49:46.780Z,2.93
2022-12-08T12:52:45.773Z,3.30
2022-12-08T12:55:49.735Z,2.40
2022-12-08T12:58:36.777Z,4.70
2022-12-08T13:01:54.122Z,4.10
2022-12-08T13:04:36.638Z,4.00
2022-12-08T13:07:05.921Z,6.10
2022-12-08T13:09:38.190Z,5.83
2022-12-08T13:12:12.140Z,6.30
2022-12-08T13:14:48.648Z,7.97
2022-12-08T13:17:25.531Z,3.50
2022-12-08T13:19:57.012Z,5.00
2022-12-08T13:22:47.458Z,6.33
2022-12-08T13:25:51.189Z,6.03
2022-12-08T13:28:23.000Z,11.70
2022-12-08T13:30:53.181Z,4.60
2022-12-08T13:33:27.245Z,10.77
2022-12-08T13:36:13.653Z,3.17
2022-12-08T13:38:45.220Z,5.70
2022-12-08T13:41:21.266Z,6.00
2022-12-08T13:44:50.466Z,5.17
2022-12-08T13:47:31.540Z,10.63
2022-12-08T13:58:19.119Z,4.87
2022-12-08T14:01:01.787Z,5.53
2022-12-08T14:03:32.099Z,6.80
2022-12-08T14:06:12.064Z,9.10
2022-12-08T14:09:02.578Z,5.87
2022-12-08T14:11:36.079Z,4.57
2022-12-08T14:14:07.279Z,7.17
2022-12-08T14:16:39.787Z,7.80
2022-12-08T14:19:17.823Z,4.77
2022-12-08T14:21:55.078Z,10.07
2022-12-08T14:24:24.226Z,8.43
2022-12-08T14:26:55.511Z,8.23
2022-12-08T14:29:43.762Z,4.73
2022-12-08T14:32:22.544Z,6.70
2022-12-08T14:35:01.544Z,3.00
2022-12-08T14:37:34.711Z,4.13
2022-12-08T14:40:07.671Z,6.07
2022-12-08T14:42:46.721Z,4.37
2022-12-08T14:45:18.147Z,5.83
2022-12-08T14:47:46.972Z,5.37
2022-12-08T14:50:42.148Z,6.33
2022-12-08T14:53:17.272Z,6.90
2022-12-08T14:55:49.126Z,7.67
2022-12-08T14:58:24.031Z,4.43
2022-12-08T15:00:57.055Z,7.67
2022-12-08T15:03:26.406Z,5.60
2022-12-08T15:05:58.883Z,2.70
2022-12-08T15:08:27.290Z,8.33
2022-12-08T15:11:18.487Z,4.70
2022-12-08T15:13:47.658Z,3.17
2022-12-08T15:16:32.376Z,8.60
2022-12-08T15:19:23.239Z,6.63
2022-12-08T15:21:53.176Z,7.77
2022-12-08T15:24:24.288Z,5.77
2022-12-08T15:26:53.908Z,11.33
2022-12-08T15:29:23.807Z,5.97
2022-12-08T15:31:53.530Z,4.33
2022-12-08T15:34:22.326Z,11.53
2022-12-08T15:36:54.194Z,8.30
2022-12-08T15:39:29.858Z,7.13
2022-12-08T15:41:58.478Z,10.17
2022-12-08T15:44:27.210Z,6.80
2022-12-08T15:46:55.580Z,13.03
2022-12-08T15:49:25.168Z,6.23
2022-12-08T15:52:05.026Z,13.57
2022-12-08T15:54:40.109Z,7.37
2022-12-08T15:57:20.415Z,6.97
2022-12-08T15:59:54.876Z,8.03
2022-12-08T16:02:25.138Z,12.77
2022-12-08T16:05:33.785Z,8.70
2022-12-08T16:07:43.656Z,9.90
2022-12-08T16:10:17.381Z,10.03
2022-12-08T16:16:00.225Z,10.77
2022-12-08T16:18:31.842Z,5.77
2022-12-08T16:21:17.057Z,10.83
2022-12-08T16:23:49.711Z,6.90
2022-12-08T16:29:09.625Z,7.80
2022-12-08T16:31:38.142Z,8.90
2022-12-08T16:34:06.232Z,8.80
2022-12-08T16:36:35.201Z,10.43
2022-12-08T16:39:08.754Z,13.17
2022-12-08T16:41:54.688Z,9.10
2022-12-08T16:44:22.786Z,11.63
2022-12-08T16:46:51.252Z,9.83
2022-12-08T16:49:19.831Z,11.47
2022-12-08T16:51:47.956Z,8.10
2022-12-08T16:54:17.840Z,9.17
2022-12-08T16:56:45.968Z,8.60
2022-12-08T16:59:14.147Z,15.90
2022-12-08T17:01:42.789Z,18.50
2022-12-08T17:06:59.783Z,13.43
2022-12-08T17:09:31.200Z,6.40
2022-12-08T17:12:03.718Z,9.00
2022-12-08T17:14:35.067Z,8.37
2022-12-08T17:17:03.286Z,22.10
2022-12-08T17:19:31.459Z,14.97
2022-12-08T17:22:00.236Z,7.67
2022-12-08T17:24:30.297Z,7.43
2022-12-08T17:27:04.432Z,7.40
2022-12-08T17:29:32.936Z,8.87
2022-12-08T17:32:01.235Z,10.00
2022-12-08T17:34:29.789Z,6.57
2022-12-08T17:36:57.945Z,8.33
2022-12-08T17:39:26.922Z,9.40
2022-12-08T17:41:56.601Z,14.03
2022-12-08T17:44:24.797Z,19.87
2022-12-08T17:46:53.490Z,9.10
2022-12-08T17:49:23.879Z,16.17
2022-12-08T17:51:53.981Z,10.63
2022-12-08T17:54:22.423Z,15.77
2022-12-08T17:56:51.519Z,2.83
2022-12-08T17:59:21.227Z,3.90
2022-12-08T18:01:49.706Z,8.43
2022-12-08T18:04:17.973Z,13.57
2022-12-08T18:06:46.923Z,9.80
2022-12-08T18:09:16.044Z,13.30
2022-12-08T18:11:46.836Z,7.73
2022-12-08T18:14:16.108Z,8.80
2022-12-08T18:16:47.673Z,12.60
2022-12-08T18:19:17.208Z,8.90
2022-12-08T18:21:45.415Z,9.93
2022-12-08T18:24:18.951Z,3.93
2022-12-08T18:26:47.902Z,16.13
2022-12-08T18:29:15.979Z,8.50
2022-12-08T18:31:46.005Z,9.87
2022-12-08T18:34:14.591Z,9.57
2022-12-08T18:36:42.866Z,7.87
2022-12-08T18:39:22.215Z,8.40
2022-12-08T18:41:50.395Z,22.67
2022-12-08T18:44:19.061Z,14.57
2022-12-08T18:46:49.132Z,11.93
2022-12-08T18:49:19.773Z,18.50
2022-12-08T18:51:48.783Z,12.50
2022-12-08T18:54:17.052Z,12.40
2022-12-08T18:56:45.561Z,10.30
2022-12-08T18:59:14.315Z,13.37
2022-12-08T19:01:43.169Z,12.23
2022-12-08T19:04:28.278Z,14.67
2022-12-08T19:06:58.421Z,11.97
2022-12-08T19:09:30.491Z,14.20
2022-12-08T19:11:59.080Z,18.13
2022-12-08T19:14:28.807Z,13.00
2022-12-08T19:16:57.372Z,10.73
2022-12-08T19:19:27.245Z,14.07
2022-12-08T19:21:55.952Z,16.03
2022-12-08T19:24:24.152Z,12.43
2022-12-08T19:26:52.668Z,14.60
2022-12-08T19:29:21.392Z,12.03
2022-12-08T19:31:49.625Z,10.37
2022-12-08T19:34:17.899Z,13.57
2022-12-08T19:36:49.273Z,15.63
2022-12-08T19:39:36.851Z,11.80
2022-12-08T19:42:25.288Z,12.83
2022-12-08T19:44:56.284Z,12.67
2022-12-08T19:47:26.110Z,19.13
2022-12-08T19:50:15.840Z,15.03
2022-12-08T19:52:46.085Z,16.17
2022-12-08T19:55:14.503Z,21.87
2022-12-08T19:57:43.308Z,15.47
2022-12-08T20:00:13.535Z,15.27
2022-12-08T20:02:41.678Z,16.27
2022-12-08T20:05:11.726Z,17.20
2022-12-08T20:07:40.361Z,13.47
2022-12-08T20:10:15.854Z,17.30
2022-12-08T20:12:44.309Z,14.70
2022-12-08T20:15:12.616Z,16.80
2022-12-08T20:17:41.259Z,15.57
2022-12-08T20:20:10.723Z,18.17
2022-12-08T20:22:39.161Z,12.30
2022-12-08T20:25:13.004Z,26.13
2022-12-08T20:27:42.295Z,14.50
2022-12-08T20:30:16.684Z,19.40
2022-12-08T20:32:45.736Z,14.03
2022-12-08T20:35:14.603Z,25.03
2022-12-08T20:37:42.962Z,18.37
2022-12-08T20:40:13.085Z,12.27
2022-12-08T20:42:41.706Z,42.53
2022-12-08T20:45:10.559Z,31.23
2022-12-08T20:47:38.794Z,22.13
2022-12-08T20:50:08.813Z,25.43
2022-12-08T20:52:38.887Z,68.00
2022-12-08T20:55:09.052Z,103.43
2022-12-08T20:57:38.899Z,84.97
2022-12-08T21:00:09.297Z,83.93
2022-12-08T21:02:43.232Z,48.87
2022-12-08T21:05:17.788Z,42.90
2022-12-08T21:07:46.236Z,27.50
2022-12-08T21:10:14.740Z,17.53
2022-12-08T21:12:44.632Z,20.47
2022-12-08T21:15:13.375Z,19.43
2022-12-08T21:17:42.542Z,31.37
2022-12-08T21:20:12.096Z,61.03
2022-12-08T21:22:41.042Z,24.23
2022-12-08T21:25:11.966Z,24.27
2022-12-08T21:27:40.970Z,18.37
2022-12-08T21:30:12.114Z,59.07
2022-12-08T21:32:40.779Z,22.43
2022-12-08T21:35:10.049Z,19.87
2022-12-08T21:37:38.708Z,26.93
2022-12-08T21:40:08.701Z,24.60
2022-12-08T21:42:46.103Z,20.50
2022-12-08T21:45:17.822Z,17.67
2022-12-08T21:47:47.944Z,20.57
2022-12-08T21:50:17.233Z,24.10
2022-12-08T21:52:47.693Z,14.10
2022-12-08T21:55:20.400Z,21.07
2022-12-08T21:57:48.851Z,23.97
2022-12-08T22:00:20.035Z,16.80
2022-12-08T22:02:48.320Z,14.33
2022-12-08T22:05:16.764Z,22.27
2022-12-08T22:07:45.110Z,18.90
2022-12-08T22:10:13.456Z,18.27
2022-12-08T22:12:42.087Z,26.40
2022-12-08T22:15:12.288Z,15.90
2022-12-08T22:17:43.452Z,21.57
2022-12-08T22:20:13.742Z,19.47
2022-12-08T22:22:42.352Z,19.33
2022-12-08T22:25:13.236Z,22.23
2022-12-08T22:27:42.073Z,21.10
2022-12-08T22:30:12.010Z,26.13
2022-12-08T22:32:42.598Z,19.17
2022-12-08T22:35:11.599Z,22.27
2022-12-08T22:37:39.844Z,14.80
2022-12-08T22:40:09.911Z,20.50
2022-12-08T22:42:38.810Z,16.83
2022-12-08T22:45:08.056Z,18.57
2022-12-08T22:47:36.741Z,19.33
2022-12-08T22:50:07.971Z,45.43
2022-12-08T22:52:36.233Z,17.40
2022-12-08T22:55:05.594Z,15.47
2022-12-08T22:57:33.772Z,179.10
2022-12-08T23:00:02.096Z,104.90
2022-12-08T23:02:30.460Z,81.57
2022-12-08T23:04:58.735Z,31.07
2022-12-08T23:07:28.497Z,19.30
2022-12-08T23:09:57.473Z,19.60
2022-12-08T23:12:25.547Z,25.53
2022-12-08T23:14:53.728Z,19.17
2022-12-08T23:17:22.123Z,28.90
2022-12-08T23:19:50.569Z,26.33
2022-12-08T23:22:18.741Z,23.10
2022-12-08T23:24:48.549Z,22.33
2022-12-08T23:27:16.684Z,28.17
2022-12-08T23:29:44.886Z,22.07
2022-12-08T23:32:13.722Z,19.67
2022-12-08T23:34:41.934Z,21.57
2022-12-08T23:37:10.227Z,16.60
2022-12-08T23:39:39.196Z,20.60
2022-12-08T23:42:08.823Z,17.87
2022-12-08T23:44:37.163Z,18.33
2022-12-08T23:47:05.690Z,15.30
2022-12-08T23:49:34.643Z,16.23
2022-12-08T23:52:04.386Z,19.97
2022-12-08T23:54:32.985Z,16.27
2022-12-08T23:57:01.157Z,18.57
2022-12-08T23:59:32.153Z,17.53
